Time;durP1;ratioP1;P1;durP2;ratioP2;P2;SDS_P1;SDS_P2;PMS_P1;PMS_P2;Temp;Humidity;BMP_temperature;BMP_pressure;BME280_temperature;BME280_humidity;BME280_pressure;Samples;Min_cycle;Max_cycle;Signal;HPM_P1;HPM_P2
2022/03/26 00:01:28;;;;;;;;;;;;;;;21.53;36.24;102989.03;5054360;28;20007;-81
2022/03/26 00:03:53;;;;;;;;;;;;;;;21.52;36.18;102979.97;5036756;28;20422;-80
2022/03/26 00:06:19;;;;;;;;;;;;;;;21.52;36.18;102990.97;5054079;28;19932;-80
2022/03/26 00:08:44;;;;;;;;;;;;;;;21.52;36.27;102984.63;5053109;28;20327;-79
2022/03/26 00:11:09;;;;;;;;;;;;;;;21.53;36.34;102992.63;5055234;28;19921;-82
2022/03/26 00:13:35;;;;;;;;;;;;;;;21.52;35.98;102988.22;5053319;28;19924;-79
2022/03/26 00:16:01;;;;;;;;;;;;;;;21.52;36.42;102990.97;5054686;28;19941;-78
2022/03/26 00:18:27;;;;;;;;;;;;;;;21.54;36.16;102982.44;5036048;28;19966;-79
2022/03/26 00:20:52;;;;;;;;;;;;;;;21.52;36.04;102982.72;5036241;28;19921;-81
2022/03/26 00:23:17;;;;;;;;;;;;;;;21.55;36.18;102992.38;5054052;28;19917;-82
2022/03/26 00:25:43;;;;;;;;;;;;;;;21.54;36.26;102974.19;5053878;28;19920;-81
2022/03/26 00:28:08;;;;;;;;;;;;;;;21.53;36.01;102989.88;5069098;28;19925;-81
2022/03/26 00:30:34;;;;;;;;;;;;;;;21.54;36.31;102982.44;5053767;28;19936;-82
2022/03/26 00:32:59;;;;;;;;;;;;;;;21.54;36.31;102969.50;5036487;28;19921;-82
2022/03/26 00:35:24;;;;;;;;;;;;;;;21.54;36.06;102971.44;5053714;28;20357;-85
2022/03/26 00:37:52;;;;;;;;;;;;;;;21.54;36.34;102975.00;5052685;28;19920;-77
2022/03/26 00:40:17;;;;;;;;;;;;;;;21.54;36.37;102975.00;5053979;28;19928;-77
2022/03/26 00:42:43;;;;;;;;;;;;;;;21.54;36.08;102969.50;5069323;28;19921;-78
2022/03/26 00:45:08;;;;;;;;;;;;;;;21.54;36.36;102969.50;5053759;28;19921;-77
2022/03/26 00:47:34;;;;;;;;;;;;;;;21.55;36.26;102979.44;5036217;28;19953;-77
2022/03/26 00:49:59;;;;;;;;;;;;;;;21.55;36.24;102982.19;5069435;28;20384;-77
2022/03/26 00:52:24;;;;;;;;;;;;;;;21.56;36.08;102977.50;5053617;28;19966;-77
2022/03/26 00:54:49;;;;;;;;;;;;;;;21.56;35.99;102981.09;5054387;28;19963;-77
2022/03/26 00:57:16;;;;;;;;;;;;;;;21.55;35.87;102975.88;5054015;28;19987;-78
2022/03/26 00:59:41;;;;;;;;;;;;;;;21.55;36.07;102970.38;5069020;28;19921;-77
2022/03/26 01:02:07;;;;;;;;;;;;;;;21.55;35.98;102976.69;5053830;28;19921;-77
2022/03/26 01:04:32;;;;;;;;;;;;;;;21.54;36.26;102975.00;5069577;28;19944;-77
2022/03/26 01:06:57;;;;;;;;;;;;;;;21.55;36.21;102978.63;5069798;28;19920;-77
2022/03/26 01:09:23;;;;;;;;;;;;;;;21.54;36.00;102974.19;5072013;28;19920;-77
2022/03/26 01:11:48;;;;;;;;;;;;;;;21.54;36.18;102968.69;5058149;28;20285;-77
2022/03/26 01:14:13;;;;;;;;;;;;;;;21.53;36.19;102970.63;5057521;28;19925;-75
2022/03/26 01:16:38;;;;;;;;;;;;;;;21.53;36.19;102970.63;5040028;28;20249;-77
2022/03/26 01:19:04;;;;;;;;;;;;;;;21.53;36.11;102972.53;5057785;28;19970;-77
2022/03/26 01:21:29;;;;;;;;;;;;;;;21.53;35.89;102970.63;5057332;28;19921;-80
2022/03/26 01:23:54;;;;;;;;;;;;;;;21.52;35.98;102971.72;5057729;28;19921;-79
2022/03/26 01:26:20;;;;;;;;;;;;;;;21.51;35.93;102964.53;5057518;28;20021;-77
2022/03/26 01:28:46;;;;;;;;;;;;;;;21.50;36.10;102962.91;5056933;28;19928;-77
2022/03/26 01:31:11;;;;;;;;;;;;;;;21.50;36.16;102960.16;5040424;28;19932;-77
2022/03/26 01:33:36;;;;;;;;;;;;;;;21.49;35.93;102963.16;5057156;28;20377;-77
2022/03/26 01:36:02;;;;;;;;;;;;;;;21.49;36.25;102961.22;5057163;28;20379;-77
2022/03/26 01:38:27;;;;;;;;;;;;;;;21.48;35.95;102967.81;5039528;28;19925;-77
2022/03/26 01:40:52;;;;;;;;;;;;;;;21.48;35.81;102964.25;5040155;28;19971;-77
2022/03/26 01:43:18;;;;;;;;;;;;;;;21.47;36.11;102960.69;5057626;28;19925;-77
2022/03/26 01:45:43;;;;;;;;;;;;;;;21.47;36.10;102968.94;5057647;28;20309;-77
2022/03/26 01:48:08;;;;;;;;;;;;;;;21.46;35.95;102970.00;5039219;28;19917;-78
2022/03/26 01:50:34;;;;;;;;;;;;;;;21.46;36.08;102969.19;5057496;28;19917;-78
2022/03/26 01:52:59;;;;;;;;;;;;;;;21.46;35.97;102974.69;5039296;28;19917;-78
2022/03/26 01:55:25;;;;;;;;;;;;;;;21.44;36.00;102966.69;5039276;28;20002;-77
2022/03/26 01:57:51;;;;;;;;;;;;;;;21.44;36.04;102977.69;5039285;28;19924;-77
2022/03/26 02:00:17;;;;;;;;;;;;;;;21.43;35.87;102970.53;5057344;28;20120;-77
2022/03/26 02:02:45;;;;;;;;;;;;;;;21.43;35.92;102970.53;5039014;28;19921;-77
2022/03/26 02:05:11;;;;;;;;;;;;;;;21.43;35.97;102977.97;5039115;28;19929;-78
2022/03/26 02:07:37;;;;;;;;;;;;;;;21.43;35.83;102972.47;5039222;28;19917;-78
2022/03/26 02:10:03;;;;;;;;;;;;;;;21.43;35.77;102976.03;5055291;28;20395;-77
2022/03/26 02:12:29;;;;;;;;;;;;;;;21.42;35.65;102968.03;5055509;28;20025;-77
2022/03/26 02:14:55;;;;;;;;;;;;;;;21.42;36.00;102968.03;5056699;28;19917;-77
2022/03/26 02:17:20;;;;;;;;;;;;;;;21.39;35.81;102967.50;5038843;28;20330;-77
2022/03/26 02:20:12;;;;;;;;;;;;;;;21.40;35.92;102965.56;5072103;28;19925;-78
2022/03/26 02:22:38;;;;;;;;;;;;;;;21.40;35.76;102971.06;5036054;28;19959;-81
2022/03/26 02:25:04;;;;;;;;;;;;;;;21.39;35.92;102969.38;5056559;28;19917;-77
2022/03/26 02:27:29;;;;;;;;;;;;;;;21.38;35.89;102951.22;5038272;28;20061;-78
2022/03/26 02:29:55;;;;;;;;;;;;;;;21.38;35.93;102970.47;5072517;28;19920;-77
2022/03/26 02:32:21;;;;;;;;;;;;;;;21.37;36.05;102968.81;5055290;28;20448;-77
2022/03/26 02:34:47;;;;;;;;;;;;;;;21.38;35.99;102970.47;5055857;28;19928;-77
2022/03/26 02:37:12;;;;;;;;;;;;;;;21.37;36.00;102966.06;5056581;28;19921;-77
2022/03/26 02:39:37;;;;;;;;;;;;;;;21.36;35.81;102965.22;5038087;28;20361;-80
2022/03/26 02:42:03;;;;;;;;;;;;;;;21.36;35.94;102970.72;5055363;28;19994;-77
2022/03/26 02:44:28;;;;;;;;;;;;;;;21.35;35.69;102970.97;5038221;28;19925;-78
2022/03/26 02:46:53;;;;;;;;;;;;;;;21.35;35.97;102976.47;5056109;28;19967;-77
2022/03/26 02:49:18;;;;;;;;;;;;;;;21.35;36.00;102970.97;5038328;28;19920;-78
2022/03/26 02:51:44;;;;;;;;;;;;;;;21.34;36.04;102970.16;5055690;28;20376;-77
2022/03/26 02:54:18;;;;;;;;;;;;;;;21.34;35.84;102967.41;5071500;28;19943;-77
2022/03/26 02:56:54;;;;;;;;;;;;;;;21.34;35.89;102972.06;5038727;28;20296;-77
2022/03/26 02:59:19;;;;;;;;;;;;;;;21.33;35.94;102973.97;5055969;28;19964;-78
2022/03/26 03:01:45;;;;;;;;;;;;;;;21.34;35.82;102961.06;5055784;28;19956;-77
2022/03/26 03:04:10;;;;;;;;;;;;;;;21.32;35.79;102975.09;5037899;28;19928;-77
2022/03/26 03:06:35;;;;;;;;;;;;;;;21.33;35.91;102967.66;5055820;28;20008;-77
2022/03/26 03:09:02;;;;;;;;;;;;;;;21.32;35.98;102963.28;5037950;28;19912;-77
2022/03/26 03:11:27;;;;;;;;;;;;;;;21.32;35.85;102960.53;5055997;28;19921;-77
2022/03/26 03:13:52;;;;;;;;;;;;;;;21.30;35.97;102969.00;5056071;28;19974;-77
2022/03/26 03:16:18;;;;;;;;;;;;;;;21.29;35.47;102964.63;5037623;28;19917;-77
2022/03/26 03:18:43;;;;;;;;;;;;;;;21.30;35.69;102969.00;5055455;28;19921;-78
2022/03/26 03:21:08;;;;;;;;;;;;;;;21.30;35.84;102968.19;5071521;28;19971;-77
2022/03/26 03:23:34;;;;;;;;;;;;;;;21.30;35.91;102965.44;5055722;28;20023;-77
2022/03/26 03:25:59;;;;;;;;;;;;;;;21.29;35.65;102961.88;5055336;28;19925;-77
2022/03/26 03:28:24;;;;;;;;;;;;;;;21.28;35.64;102964.88;5055260;28;19924;-77
2022/03/26 03:30:50;;;;;;;;;;;;;;;21.28;35.92;102965.69;5055207;28;20004;-77
2022/03/26 03:33:15;;;;;;;;;;;;;;;21.26;36.04;102967.88;5036491;28;20000;-77
2022/03/26 03:35:40;;;;;;;;;;;;;;;21.27;35.92;102966.78;5037395;28;19932;-77
2022/03/26 03:38:06;;;;;;;;;;;;;;;21.27;35.75;102960.44;5055155;28;19921;-78
2022/03/26 03:40:31;;;;;;;;;;;;;;;21.26;35.69;102961.53;5055450;28;20317;-77
2022/03/26 03:42:56;;;;;;;;;;;;;;;21.27;35.68;102968.69;5055434;28;19917;-77
2022/03/26 03:45:22;;;;;;;;;;;;;;;21.26;35.88;102967.03;5055887;28;19979;-78
2022/03/26 03:47:47;;;;;;;;;;;;;;;21.25;35.65;102966.22;5070626;28;20008;-77
2022/03/26 03:50:12;;;;;;;;;;;;;;;21.24;35.89;102970.03;5037051;28;20368;-77
2022/03/26 03:52:38;;;;;;;;;;;;;;;21.25;35.91;102970.91;5037835;28;19974;-77
2022/03/26 03:55:04;;;;;;;;;;;;;;;21.24;35.88;102969.22;5037430;28;20020;-78
2022/03/26 03:57:29;;;;;;;;;;;;;;;21.23;35.96;102973.88;5036843;28;20395;-77
2022/03/26 03:59:54;;;;;;;;;;;;;;;21.23;35.89;102976.63;5054735;28;19917;-77
2022/03/26 04:02:19;;;;;;;;;;;;;;;21.23;35.89;102973.88;5054725;28;19932;-77
2022/03/26 04:04:45;;;;;;;;;;;;;;;21.22;35.68;102975.00;5054407;28;19931;-81
2022/03/26 04:07:10;;;;;;;;;;;;;;;21.23;35.69;102981.31;5054700;28;19924;-78
2022/03/26 04:09:36;;;;;;;;;;;;;;;21.21;35.95;102978.81;5053625;28;19947;-77
2022/03/26 04:12:02;;;;;;;;;;;;;;;21.22;35.93;102979.63;5053300;28;19921;-77
2022/03/26 04:14:27;;;;;;;;;;;;;;;21.21;35.90;102984.31;5054401;28;20002;-77
2022/03/26 04:16:53;;;;;;;;;;;;;;;21.21;35.59;102983.50;5054586;28;19917;-78
2022/03/26 04:19:18;;;;;;;;;;;;;;;21.21;35.94;102988.97;5054449;28;19924;-78
2022/03/26 04:21:44;;;;;;;;;;;;;;;21.20;35.72;102990.09;5054405;28;19921;-78
2022/03/26 04:24:09;;;;;;;;;;;;;;;21.19;35.91;102989.22;5053197;28;19947;-77
2022/03/26 04:26:35;;;;;;;;;;;;;;;21.18;35.74;102980.16;5069260;28;19967;-78
2022/03/26 04:29:01;;;;;;;;;;;;;;;21.17;35.87;102986.75;5054310;28;19951;-77
2022/03/26 04:31:26;;;;;;;;;;;;;;;21.17;35.98;102984.00;5054443;28;19929;-78
2022/03/26 04:33:51;;;;;;;;;;;;;;;21.18;35.82;102982.09;5054458;28;19927;-78
2022/03/26 04:36:17;;;;;;;;;;;;;;;21.16;35.91;102982.34;5053687;28;19971;-77
2022/03/26 04:38:42;;;;;;;;;;;;;;;21.16;35.88;102976.84;5054141;28;20304;-78
2022/03/26 04:41:08;;;;;;;;;;;;;;;21.16;35.92;102976.03;5054045;28;20277;-78
2022/03/26 04:43:33;;;;;;;;;;;;;;;21.15;35.77;102972.44;5069679;28;19924;-78
2022/03/26 04:45:59;;;;;;;;;;;;;;;21.15;35.83;102974.38;5053936;28;20065;-78
2022/03/26 04:48:24;;;;;;;;;;;;;;;21.14;36.06;102979.03;5036353;28;19917;-78
2022/03/26 04:50:50;;;;;;;;;;;;;;;21.15;35.71;102974.38;5035965;28;19927;-77
2022/03/26 04:53:15;;;;;;;;;;;;;;;21.14;35.97;102976.28;5069469;28;19928;-78
2022/03/26 04:55:40;;;;;;;;;;;;;;;21.15;35.93;102979.88;5053598;28;19917;-77
2022/03/26 04:58:06;;;;;;;;;;;;;;;21.14;35.78;102976.28;5036079;28;20431;-77
2022/03/26 05:00:31;;;;;;;;;;;;;;;21.13;35.84;102980.13;5069323;28;19921;-78
2022/03/26 05:02:57;;;;;;;;;;;;;;;21.13;35.93;102979.28;5053716;28;20007;-77
2022/03/26 05:05:22;;;;;;;;;;;;;;;21.13;35.91;102974.63;5054209;28;19917;-78
2022/03/26 05:07:47;;;;;;;;;;;;;;;21.12;35.97;102972.16;5054263;28;20390;-77
2022/03/26 05:10:17;;;;;;;;;;;;;;;21.12;35.92;102978.47;5054178;28;19921;-77
2022/03/26 05:12:43;;;;;;;;;;;;;;;21.11;35.91;102979.53;5035994;28;19920;-77
2022/03/26 05:15:08;;;;;;;;;;;;;;;21.11;35.52;102975.97;5053950;28;20413;-78
2022/03/26 05:17:34;;;;;;;;;;;;;;;21.10;35.72;102980.66;5053650;28;19974;-77
2022/03/26 05:19:59;;;;;;;;;;;;;;;21.10;35.78;102977.91;5035714;28;20055;-78
2022/03/26 05:22:25;;;;;;;;;;;;;;;21.10;35.94;102986.13;5068843;28;20365;-78
2022/03/26 05:24:50;;;;;;;;;;;;;;;21.10;35.85;102980.66;5035627;28;20343;-80
2022/03/26 05:27:15;;;;;;;;;;;;;;;21.10;35.75;102980.66;5069759;28;19936;-77
2022/03/26 05:29:40;;;;;;;;;;;;;;;21.09;35.86;102986.38;5054228;28;19921;-78
2022/03/26 05:32:06;;;;;;;;;;;;;;;21.09;35.73;102986.38;5052212;28;19986;-77
2022/03/26 05:34:31;;;;;;;;;;;;;;;21.08;35.81;102991.06;5053235;28;19999;-77
2022/03/26 05:36:57;;;;;;;;;;;;;;;21.09;35.85;102998.22;5053943;28;20356;-77
2022/03/26 05:39:22;;;;;;;;;;;;;;;21.08;35.85;102992.97;5053504;28;19916;-77
2022/03/26 05:41:47;;;;;;;;;;;;;;;21.08;35.95;103006.72;5053595;28;20261;-77
2022/03/26 05:44:13;;;;;;;;;;;;;;;21.08;35.87;103010.28;5053387;28;20331;-78
2022/03/26 05:46:38;;;;;;;;;;;;;;;21.07;35.73;103011.41;5053187;28;19946;-77
2022/03/26 05:49:03;;;;;;;;;;;;;;;21.06;35.80;103012.47;5068847;28;19917;-77
2022/03/26 05:51:29;;;;;;;;;;;;;;;21.07;35.82;103018.81;5035750;28;20368;-77
2022/03/26 05:53:54;;;;;;;;;;;;;;;21.07;35.88;103016.88;5068616;28;20384;-77
2022/03/26 05:56:20;;;;;;;;;;;;;;;21.06;35.84;103017.13;5037436;28;19924;-78
2022/03/26 05:58:45;;;;;;;;;;;;;;;21.06;35.80;103020.72;5072546;28;19967;-78
2022/03/26 06:01:11;;;;;;;;;;;;;;;21.06;35.97;103033.63;5056661;28;20371;-77
2022/03/26 06:03:36;;;;;;;;;;;;;;;21.05;35.89;103034.72;5056828;28;19921;-79
2022/03/26 06:06:01;;;;;;;;;;;;;;;21.05;35.74;103035.56;5056529;28;19921;-77
2022/03/26 06:08:26;;;;;;;;;;;;;;;21.05;35.93;103041.03;5057458;28;19924;-77
2022/03/26 06:10:51;;;;;;;;;;;;;;;21.04;35.97;103033.91;5056876;28;19971;-77
2022/03/26 06:13:17;;;;;;;;;;;;;;;21.04;35.71;103036.66;5056748;28;19956;-78
2022/03/26 06:15:42;;;;;;;;;;;;;;;21.04;35.83;103042.16;5039011;28;20391;-78
2022/03/26 06:18:08;;;;;;;;;;;;;;;21.05;35.72;103030.06;5056633;28;19939;-78
2022/03/26 06:20:33;;;;;;;;;;;;;;;21.04;35.76;103044.03;5056667;28;19921;-77
2022/03/26 06:22:59;;;;;;;;;;;;;;;21.04;35.85;103038.53;5039559;28;19927;-78
2022/03/26 06:25:24;;;;;;;;;;;;;;;21.04;35.77;103031.16;5072003;28;20365;-78
2022/03/26 06:27:49;;;;;;;;;;;;;;;21.04;35.90;103036.66;5071881;28;19955;-77
2022/03/26 06:30:15;;;;;;;;;;;;;;;21.04;35.78;103033.91;5071960;28;20065;-78
2022/03/26 06:32:41;;;;;;;;;;;;;;;21.04;35.74;103039.41;5072081;28;19924;-77
2022/03/26 06:35:06;;;;;;;;;;;;;;;21.05;35.97;103031.97;5057023;28;20015;-77
2022/03/26 06:37:32;;;;;;;;;;;;;;;21.04;35.90;103033.03;5056482;28;20409;-78
2022/03/26 06:39:57;;;;;;;;;;;;;;;21.04;35.71;103038.53;5057080;28;19939;-81
2022/03/26 06:42:22;;;;;;;;;;;;;;;21.04;35.90;103039.41;5039012;28;19928;-77
2022/03/26 06:44:48;;;;;;;;;;;;;;;21.04;36.09;103041.28;5072405;28;20380;-77
2022/03/26 06:47:13;;;;;;;;;;;;;;;21.04;35.95;103050.38;5071930;28;19921;-77
2022/03/26 06:49:38;;;;;;;;;;;;;;;21.04;35.76;103049.53;5072141;28;20011;-77
2022/03/26 06:52:04;;;;;;;;;;;;;;;21.04;35.74;103055.88;5072202;28;19970;-77
2022/03/26 06:54:29;;;;;;;;;;;;;;;21.04;35.63;103055.88;5056381;28;20063;-77
2022/03/26 06:56:55;;;;;;;;;;;;;;;21.04;35.89;103053.13;5038163;28;19917;-78
2022/03/26 06:59:21;;;;;;;;;;;;;;;21.04;35.58;103055.03;5055502;28;19989;-77
2022/03/26 07:01:46;;;;;;;;;;;;;;;21.05;35.74;103056.72;5037979;28;19928;-77
2022/03/26 07:04:12;;;;;;;;;;;;;;;21.04;35.83;103055.88;5037932;28;19925;-77
2022/03/26 07:06:37;;;;;;;;;;;;;;;21.04;35.61;103064.13;5038517;28;20230;-77
2022/03/26 07:09:03;;;;;;;;;;;;;;;21.03;35.90;103056.94;5071076;28;19947;-77
2022/03/26 07:11:28;;;;;;;;;;;;;;;21.03;35.69;103065.19;5055432;28;19921;-77
2022/03/26 07:13:53;;;;;;;;;;;;;;;21.04;35.85;103068.78;5071599;28;19920;-77
2022/03/26 07:16:18;;;;;;;;;;;;;;;21.04;35.83;103068.78;5055789;28;19928;-76
2022/03/26 07:18:44;;;;;;;;;;;;;;;21.04;35.66;103071.50;5054359;28;20369;-78
2022/03/26 07:21:09;;;;;;;;;;;;;;;21.03;35.91;103062.44;5055885;28;20371;-78
2022/03/26 07:23:34;;;;;;;;;;;;;;;21.04;35.82;103075.13;5071073;28;20365;-77
2022/03/26 07:26:00;;;;;;;;;;;;;;;21.03;35.90;103065.19;5070939;28;19927;-78
2022/03/26 07:28:25;;;;;;;;;;;;;;;21.04;35.72;103066.03;5055939;28;19921;-78
2022/03/26 07:30:51;;;;;;;;;;;;;;;21.04;35.97;103068.78;5055407;28;19917;-77
2022/03/26 07:33:16;;;;;;;;;;;;;;;21.03;36.10;103064.38;5036941;28;20007;-77
2022/03/26 07:35:42;;;;;;;;;;;;;;;21.04;35.98;103066.03;5055074;28;19921;-76
2022/03/26 07:38:07;;;;;;;;;;;;;;;21.01;36.28;103070.09;5054906;28;20374;-77
2022/03/26 07:40:32;;;;;;;;;;;;;;;20.99;36.35;103071.47;5054820;28;19916;-79
2022/03/26 07:42:58;;;;;;;;;;;;;;;20.98;36.43;103078.06;5053839;28;20015;-79
2022/03/26 07:45:23;;;;;;;;;;;;;;;20.97;36.54;103074.47;5070993;28;19932;-80
2022/03/26 07:47:49;;;;;;;;;;;;;;;20.96;36.32;103076.41;5070352;28;19921;-79
2022/03/26 07:50:14;;;;;;;;;;;;;;;20.98;36.48;103086.28;5054695;28;19928;-79
2022/03/26 07:52:41;;;;;;;;;;;;;;;20.98;36.70;103087.13;5053710;28;20360;-78
2022/03/26 07:55:06;;;;;;;;;;;;;;;21.01;36.56;103086.59;5054856;28;19931;-80
2022/03/26 07:57:31;;;;;;;;;;;;;;;21.03;36.75;103080.84;5054725;28;19920;-79
2022/03/26 07:59:57;;;;;;;;;;;;;;;21.05;36.65;103087.75;5054068;28;19921;-81
2022/03/26 08:02:22;;;;;;;;;;;;;;;21.05;36.63;103093.25;5054678;28;20361;-79
2022/03/26 08:04:47;;;;;;;;;;;;;;;21.07;36.84;103082.84;5070095;28;20004;-79
2022/03/26 08:07:13;;;;;;;;;;;;;;;21.09;36.97;103085.31;5070183;28;19921;-79
2022/03/26 08:09:39;;;;;;;;;;;;;;;21.10;36.77;103090.56;5070286;28;19920;-79
2022/03/26 08:12:04;;;;;;;;;;;;;;;21.11;36.75;103089.47;5054589;28;19921;-80
2022/03/26 08:14:30;;;;;;;;;;;;;;;21.12;36.90;103093.88;5053682;28;19921;-79
2022/03/26 08:16:55;;;;;;;;;;;;;;;21.13;36.77;103095.53;5053036;28;19920;-80
2022/03/26 08:19:20;;;;;;;;;;;;;;;21.15;36.83;103098.03;5036009;28;19991;-81
2022/03/26 08:21:46;;;;;;;;;;;;;;;21.14;37.00;103094.47;5053384;28;19925;-82
2022/03/26 08:24:12;;;;;;;;;;;;;;;21.15;36.80;103095.28;5054321;28;20262;-83
2022/03/26 08:26:38;;;;;;;;;;;;;;;21.15;36.80;103104.38;5070610;28;19921;-87
2022/03/26 08:29:03;;;;;;;;;;;;;;;21.16;36.73;103099.69;5054419;28;20357;-82
2022/03/26 08:31:29;;;;;;;;;;;;;;;21.16;36.73;103103.25;5036323;28;19917;-84
2022/03/26 08:33:55;;;;;;;;;;;;;;;21.16;36.72;103096.94;5054178;28;19917;-82
2022/03/26 08:36:20;;;;;;;;;;;;;;;21.16;36.85;103102.44;5035926;28;19987;-82
2022/03/26 08:38:46;;;;;;;;;;;;;;;21.16;36.80;103099.69;5053737;28;20023;-83
2022/03/26 08:41:16;;;;;;;;;;;;;;;21.16;36.53;103100.50;5052560;28;19921;-81
2022/03/26 08:43:41;;;;;;;;;;;;;;;21.16;36.81;103102.44;5054525;28;19917;-80
2022/03/26 08:46:06;;;;;;;;;;;;;;;21.16;36.53;103102.44;5036007;28;19921;-82
2022/03/26 08:48:32;;;;;;;;;;;;;;;21.16;36.61;103114.25;5053549;28;20024;-82
2022/03/26 08:50:57;;;;;;;;;;;;;;;21.15;36.44;103109.88;5036169;28;19917;-82
2022/03/26 08:53:23;;;;;;;;;;;;;;;21.15;36.44;103107.13;5035838;28;19928;-82
2022/03/26 08:55:48;;;;;;;;;;;;;;;21.15;36.54;103109.88;5036147;28;20365;-82
2022/03/26 08:58:14;;;;;;;;;;;;;;;21.15;36.42;103112.59;5053688;28;20279;-82
2022/03/26 09:00:39;;;;;;;;;;;;;;;21.14;36.55;103110.97;5053844;28;20007;-82
2022/03/26 09:03:05;;;;;;;;;;;;;;;21.13;36.50;103106.53;5053537;28;19924;-82
2022/03/26 09:05:30;;;;;;;;;;;;;;;21.15;36.25;103106.28;5069404;28;19967;-81
2022/03/26 09:07:55;;;;;;;;;;;;;;;21.15;36.46;103109.03;5052380;28;19925;-81
2022/03/26 09:10:21;;;;;;;;;;;;;;;21.15;36.55;103114.53;5053236;28;20289;-82
2022/03/26 09:12:46;;;;;;;;;;;;;;;21.16;36.27;103113.44;5053664;28;20003;-81
2022/03/26 09:15:12;;;;;;;;;;;;;;;21.16;36.27;103113.44;5053720;28;20011;-82
2022/03/26 09:17:38;;;;;;;;;;;;;;;21.15;36.27;103114.53;5035603;28;20016;-81
2022/03/26 09:20:04;;;;;;;;;;;;;;;21.15;36.20;103118.09;5036025;28;19917;-81
2022/03/26 09:22:29;;;;;;;;;;;;;;;21.15;36.36;103120.84;5035579;28;20007;-82
2022/03/26 09:24:55;;;;;;;;;;;;;;;21.15;36.30;103120.84;5036145;28;19917;-83
2022/03/26 09:27:20;;;;;;;;;;;;;;;21.16;36.33;103124.44;5061251;28;20008;-82
2022/03/26 09:29:45;;;;;;;;;;;;;;;21.15;36.27;103120.84;5032555;28;19948;-78
2022/03/26 09:32:11;;;;;;;;;;;;;;;21.14;36.37;103121.97;5037771;28;19928;-80
2022/03/26 09:34:36;;;;;;;;;;;;;;;21.13;36.34;103123.03;5036721;28;19925;-80
2022/03/26 09:37:02;;;;;;;;;;;;;;;21.14;36.29;103123.84;5019773;28;20277;-78
2022/03/26 09:39:27;;;;;;;;;;;;;;;21.13;36.09;103125.78;5037464;28;20373;-77
2022/03/26 09:41:53;;;;;;;;;;;;;;;21.11;36.39;103122.44;5037803;28;19921;-78
2022/03/26 09:44:18;;;;;;;;;;;;;;;21.12;36.29;103115.88;5037268;28;20332;-78
2022/03/26 09:46:44;;;;;;;;;;;;;;;21.12;36.22;103115.06;5037338;28;19917;-79
2022/03/26 09:49:12;;;;;;;;;;;;;;;21.12;36.20;103121.38;5052518;28;19921;-79
2022/03/26 09:51:37;;;;;;;;;;;;;;;21.09;36.44;103113.66;5037396;28;19924;-80
2022/03/26 09:54:03;;;;;;;;;;;;;;;21.10;36.24;103111.72;5052771;28;19921;-80
2022/03/26 09:56:31;;;;;;;;;;;;;;;21.09;36.45;103108.16;5036968;28;19993;-80
2022/03/26 09:58:56;;;;;;;;;;;;;;;21.10;36.26;103103.47;5052523;28;20409;-79
2022/03/26 10:01:22;;;;;;;;;;;;;;;21.12;36.44;103098.56;5036959;28;19969;-82
2022/03/26 10:04:06;;;;;;;;;;;;;;;21.13;36.45;103101.03;5052945;28;20380;-82
2022/03/26 10:06:31;;;;;;;;;;;;;;;21.12;36.44;103101.31;5036958;28;19925;-81
2022/03/26 10:08:56;;;;;;;;;;;;;;;21.12;36.46;103107.63;5052718;28;20332;-81
2022/03/26 10:11:21;;;;;;;;;;;;;;;21.12;36.13;103099.38;5053263;28;19976;-80
2022/03/26 10:13:48;;;;;;;;;;;;;;;21.12;36.32;103104.88;5052243;28;19928;-81
2022/03/26 10:16:14;;;;;;;;;;;;;;;21.12;36.51;103099.38;5035665;28;20339;-83
2022/03/26 10:18:41;;;;;;;;;;;;;;;21.12;36.41;103099.38;5051671;28;20380;-80
2022/03/26 10:21:13;;;;;;;;;;;;;;;21.13;36.48;103098.28;5018858;28;19999;-81
2022/03/26 10:23:50;;;;;;;;;;;;;;;21.13;36.36;103095.53;5036185;28;19917;-81
2022/03/26 10:26:17;;;;;;;;;;;;;;;21.14;36.36;103099.13;5018917;28;19923;-85
2022/03/26 10:28:43;;;;;;;;;;;;;;;21.15;36.27;103109.88;5055988;28;19921;-81
2022/03/26 10:34:06;;;;;;;;;;;;;;;21.16;36.46;103097.78;5057199;28;19924;-83
2022/03/26 10:36:33;;;;;;;;;;;;;;;21.16;36.31;103105.19;5056644;28;20313;-80
2022/03/26 10:38:58;;;;;;;;;;;;;;;21.16;36.38;103089.53;5055803;28;19917;-81
2022/03/26 10:41:24;;;;;;;;;;;;;;;21.16;36.21;103095.03;5055547;28;19943;-81
2022/03/26 10:44:04;;;;;;;;;;;;;;;21.18;36.43;103092.84;5038332;28;19921;-80
2022/03/26 10:46:29;;;;;;;;;;;;;;;21.18;36.40;103087.34;5056492;28;20359;-79
2022/03/26 10:49:01;;;;;;;;;;;;;;;21.20;36.34;103086.28;5055953;28;20008;-80
2022/03/26 10:51:34;;;;;;;;;;;;;;;21.22;36.38;103095.06;5056420;28;19928;-81
2022/03/26 10:54:06;;;;;;;;;;;;;;;21.23;36.35;103088.50;5056301;28;19917;-80
2022/03/26 10:56:32;;;;;;;;;;;;;;;21.24;36.37;103087.41;5055438;28;19975;-80
2022/03/26 10:58:58;;;;;;;;;;;;;;;21.25;36.34;103091.84;5056219;28;20365;-80
2022/03/26 11:01:23;;;;;;;;;;;;;;;21.27;36.51;103086.88;5070974;28;19943;-80
2022/03/26 11:03:48;;;;;;;;;;;;;;;21.29;36.42;103090.22;5037998;28;20419;-80
2022/03/26 11:06:17;;;;;;;;;;;;;;;21.29;36.16;103082.81;5055607;28;19917;-80
2022/03/26 11:08:46;;;;;;;;;;;;;;;21.31;36.29;103088.03;5037401;28;19923;-79
2022/03/26 11:11:12;;;;;;;;;;;;;;;21.31;36.50;103083.38;5055543;28;19917;-83
2022/03/26 11:13:42;;;;;;;;;;;;;;;21.34;36.28;103079.28;5071189;28;19927;-79
2022/03/26 11:16:10;;;;;;;;;;;;;;;21.33;36.54;103088.63;5038229;28;19916;-80
2022/03/26 11:18:45;;;;;;;;;;;;;;;21.34;36.47;103077.38;5038227;28;19924;-80
2022/03/26 11:21:18;;;;;;;;;;;;;;;21.34;36.42;103082.03;5037902;28;19917;-83
2022/03/26 11:23:46;;;;;;;;;;;;;;;21.35;36.40;103069.97;5055970;28;19921;-80
2022/03/26 11:26:35;;;;;;;;;;;;;;;21.35;36.38;103079.03;5037551;28;20364;-82
2022/03/26 11:29:19;;;;;;;;;;;;;;;21.37;36.33;103078.78;5048109;28;20007;-80
2022/03/26 11:31:48;;;;;;;;;;;;;;;21.36;36.18;103079.84;5055470;28;19923;-80
2022/03/26 11:34:16;;;;;;;;;;;;;;;21.37;36.31;103073.28;5055303;28;19939;-81
2022/03/26 11:36:41;;;;;;;;;;;;;;;21.37;36.49;103071.34;5054819;28;19925;-81
2022/03/26 11:39:14;;;;;;;;;;;;;;;21.39;36.49;103071.09;5055174;28;20292;-80
2022/03/26 11:41:41;;;;;;;;;;;;;;;21.38;36.18;103070.28;5055058;28;20344;-80
2022/03/26 11:44:07;;;;;;;;;;;;;;;21.37;36.19;103068.59;5053853;28;19921;-79
2022/03/26 11:52:20;;;;;;;;;;;;;;;21.38;36.47;103055.69;5054758;28;19927;-81
2022/03/26 11:54:52;;;;;;;;;;;;;;;21.39;36.36;103051.88;5053928;28;19920;-81
2022/03/26 11:57:19;;;;;;;;;;;;;;;21.39;36.47;103049.13;5037388;28;20032;-81
2022/03/26 11:59:45;;;;;;;;;;;;;;;21.41;36.49;103055.19;5036826;28;19920;-81
2022/03/26 12:02:18;;;;;;;;;;;;;;;21.42;36.22;103045.88;5054413;28;19917;-82
2022/03/26 12:04:48;;;;;;;;;;;;;;;21.43;36.40;103047.53;5054507;28;19916;-80
2022/03/26 12:07:15;;;;;;;;;;;;;;;21.44;36.37;103046.41;5054371;28;20361;-81
2022/03/26 12:09:40;;;;;;;;;;;;;;;21.45;36.36;103048.09;5052874;28;19927;-80
2022/03/26 12:12:05;;;;;;;;;;;;;;;21.46;36.24;103048.91;5070037;28;19921;-79
2022/03/26 12:14:31;;;;;;;;;;;;;;;21.45;36.55;103039.84;5054567;28;19912;-80
2022/03/26 12:16:56;;;;;;;;;;;;;;;21.44;36.48;103038.16;5036049;28;19970;-80
2022/03/26 12:19:38;;;;;;;;;;;;;;;21.46;36.41;103035.16;5053678;28;19928;-79
2022/03/26 12:22:21;;;;;;;;;;;;;;;21.47;36.61;103034.06;5054360;28;19921;-79
2022/03/26 12:24:47;;;;;;;;;;;;;;;21.48;36.60;103033.00;5036163;28;20066;-79
2022/03/26 12:27:13;;;;;;;;;;;;;;;21.48;36.50;103022.81;5053813;28;19924;-80
2022/03/26 12:29:39;;;;;;;;;;;;;;;21.47;36.34;103026.66;5052787;28;19921;-80
2022/03/26 12:32:04;;;;;;;;;;;;;;;21.47;36.59;103018.41;5053085;28;19974;-79
2022/03/26 12:34:29;;;;;;;;;;;;;;;21.48;36.45;103013.75;5035913;28;20011;-81
2022/03/26 12:36:59;;;;;;;;;;;;;;;21.49;36.52;103018.97;5035930;28;19917;-80
2022/03/26 12:39:24;;;;;;;;;;;;;;;21.49;36.63;103012.63;5069006;28;19956;-80